sensor_id;sensor_type;location;lat;lon;timestamp;P1;durP1;ratioP1;P2;durP2;ratioP2
15228;SDS011;7717;47.792;12.076;2023-02-26T00:01:14;0.53;;;0.53;;
15228;SDS011;7717;47.792;12.076;2023-02-26T00:03:41;0.70;;;0.70;;
15228;SDS011;7717;47.792;12.076;2023-02-26T00:06:07;0.90;;;0.90;;
15228;SDS011;7717;47.792;12.076;2023-02-26T00:08:33;0.70;;;0.70;;
15228;SDS011;7717;47.792;12.076;2023-02-26T00:11:00;0.70;;;0.70;;
15228;SDS011;7717;47.792;12.076;2023-02-26T00:13:28;0.80;;;0.80;;
15228;SDS011;7717;47.792;12.076;2023-02-26T00:15:55;1.03;;;1.03;;
15228;SDS011;7717;47.792;12.076;2023-02-26T00:18:23;1.20;;;1.10;;
15228;SDS011;7717;47.792;12.076;2023-02-26T00:20:49;0.97;;;0.97;;
15228;SDS011;7717;47.792;12.076;2023-02-26T00:23:15;0.90;;;0.90;;
15228;SDS011;7717;47.792;12.076;2023-02-26T00:25:42;0.87;;;0.87;;
15228;SDS011;7717;47.792;12.076;2023-02-26T00:28:08;0.70;;;0.70;;
15228;SDS011;7717;47.792;12.076;2023-02-26T00:30:34;0.97;;;0.97;;
15228;SDS011;7717;47.792;12.076;2023-02-26T00:33:00;1.10;;;1.10;;
15228;SDS011;7717;47.792;12.076;2023-02-26T00:35:26;1.10;;;1.00;;
15228;SDS011;7717;47.792;12.076;2023-02-26T00:43:14;0.97;;;0.97;;
15228;SDS011;7717;47.792;12.076;2023-02-26T00:51:12;0.73;;;0.73;;
15228;SDS011;7717;47.792;12.076;2023-02-26T00:54:02;0.60;;;0.60;;
15228;SDS011;7717;47.792;12.076;2023-02-26T00:56:35;1.13;;;0.90;;
15228;SDS011;7717;47.792;12.076;2023-02-26T00:59:01;1.00;;;1.00;;
15228;SDS011;7717;47.792;12.076;2023-02-26T01:01:26;1.10;;;1.10;;
15228;SDS011;7717;47.792;12.076;2023-02-26T01:03:52;0.90;;;0.90;;
15228;SDS011;7717;47.792;12.076;2023-02-26T01:06:18;1.27;;;1.10;;
15228;SDS011;7717;47.792;12.076;2023-02-26T01:08:47;1.17;;;1.10;;
15228;SDS011;7717;47.792;12.076;2023-02-26T01:11:19;1.07;;;1.00;;
15228;SDS011;7717;47.792;12.076;2023-02-26T01:13:44;1.00;;;1.00;;
15228;SDS011;7717;47.792;12.076;2023-02-26T01:16:11;1.30;;;1.20;;
15228;SDS011;7717;47.792;12.076;2023-02-26T01:18:43;0.93;;;0.93;;
15228;SDS011;7717;47.792;12.076;2023-02-26T01:21:16;1.47;;;1.37;;
15228;SDS011;7717;47.792;12.076;2023-02-26T01:23:48;1.40;;;1.30;;
15228;SDS011;7717;47.792;12.076;2023-02-26T01:26:26;1.53;;;1.20;;
15228;SDS011;7717;47.792;12.076;2023-02-26T01:28:53;1.53;;;1.20;;
15228;SDS011;7717;47.792;12.076;2023-02-26T01:34:17;3.50;;;1.63;;
15228;SDS011;7717;47.792;12.076;2023-02-26T01:36:47;1.57;;;1.43;;
15228;SDS011;7717;47.792;12.076;2023-02-26T01:39:22;1.27;;;1.10;;
15228;SDS011;7717;47.792;12.076;2023-02-26T01:42:45;1.37;;;1.27;;
15228;SDS011;7717;47.792;12.076;2023-02-26T01:44:58;1.33;;;1.23;;
15228;SDS011;7717;47.792;12.076;2023-02-26T01:47:42;1.50;;;1.40;;
15228;SDS011;7717;47.792;12.076;2023-02-26T01:50:18;1.87;;;1.70;;
15228;SDS011;7717;47.792;12.076;2023-02-26T01:55:18;1.50;;;1.40;;
15228;SDS011;7717;47.792;12.076;2023-02-26T01:57:47;1.60;;;1.50;;
15228;SDS011;7717;47.792;12.076;2023-02-26T02:00:16;1.60;;;1.50;;
15228;SDS011;7717;47.792;12.076;2023-02-26T02:02:43;1.93;;;1.50;;
15228;SDS011;7717;47.792;12.076;2023-02-26T02:05:14;1.73;;;1.63;;
15228;SDS011;7717;47.792;12.076;2023-02-26T02:07:46;1.43;;;1.33;;
15228;SDS011;7717;47.792;12.076;2023-02-26T02:10:11;1.60;;;1.50;;
15228;SDS011;7717;47.792;12.076;2023-02-26T02:12:39;1.63;;;1.53;;
15228;SDS011;7717;47.792;12.076;2023-02-26T02:34:50;1.70;;;1.60;;
15228;SDS011;7717;47.792;12.076;2023-02-26T02:37:24;1.80;;;1.70;;
15228;SDS011;7717;47.792;12.076;2023-02-26T02:42:43;2.23;;;1.70;;
15228;SDS011;7717;47.792;12.076;2023-02-26T02:45:24;2.70;;;1.60;;
15228;SDS011;7717;47.792;12.076;2023-02-26T02:47:56;1.70;;;1.60;;
15228;SDS011;7717;47.792;12.076;2023-02-26T02:50:37;2.17;;;1.90;;
15228;SDS011;7717;47.792;12.076;2023-02-26T02:53:15;1.80;;;1.70;;
15228;SDS011;7717;47.792;12.076;2023-02-26T02:55:47;2.17;;;1.90;;
15228;SDS011;7717;47.792;12.076;2023-02-26T02:58:20;2.00;;;1.90;;
15228;SDS011;7717;47.792;12.076;2023-02-26T03:00:51;1.87;;;1.77;;
15228;SDS011;7717;47.792;12.076;2023-02-26T03:03:27;1.93;;;1.70;;
15228;SDS011;7717;47.792;12.076;2023-02-26T03:06:08;2.17;;;2.07;;
15228;SDS011;7717;47.792;12.076;2023-02-26T03:08:36;2.57;;;1.80;;
15228;SDS011;7717;47.792;12.076;2023-02-26T03:11:05;2.20;;;2.00;;
15228;SDS011;7717;47.792;12.076;2023-02-26T03:13:31;2.80;;;2.10;;
15228;SDS011;7717;47.792;12.076;2023-02-26T03:16:03;2.57;;;2.37;;
15228;SDS011;7717;47.792;12.076;2023-02-26T03:18:40;3.33;;;2.47;;
15228;SDS011;7717;47.792;12.076;2023-02-26T03:24:08;2.37;;;2.13;;
15228;SDS011;7717;47.792;12.076;2023-02-26T03:26:47;2.60;;;2.40;;
15228;SDS011;7717;47.792;12.076;2023-02-26T03:30:05;2.63;;;2.43;;
15228;SDS011;7717;47.792;12.076;2023-02-26T03:32:24;2.53;;;2.20;;
15228;SDS011;7717;47.792;12.076;2023-02-26T03:37:54;2.43;;;2.23;;
15228;SDS011;7717;47.792;12.076;2023-02-26T03:40:28;2.90;;;2.40;;
15228;SDS011;7717;47.792;12.076;2023-02-26T03:43:00;2.33;;;2.13;;
15228;SDS011;7717;47.792;12.076;2023-02-26T03:45:31;4.70;;;2.30;;
15228;SDS011;7717;47.792;12.076;2023-02-26T03:47:58;2.90;;;2.60;;
15228;SDS011;7717;47.792;12.076;2023-02-26T03:50:29;3.00;;;2.80;;
15228;SDS011;7717;47.792;12.076;2023-02-26T03:52:58;3.20;;;2.63;;
15228;SDS011;7717;47.792;12.076;2023-02-26T03:55:38;4.13;;;2.40;;
15228;SDS011;7717;47.792;12.076;2023-02-26T03:58:09;3.77;;;2.67;;
15228;SDS011;7717;47.792;12.076;2023-02-26T04:00:34;2.70;;;2.50;;
15228;SDS011;7717;47.792;12.076;2023-02-26T04:05:34;2.63;;;2.40;;
15228;SDS011;7717;47.792;12.076;2023-02-26T04:08:04;2.30;;;2.17;;
15228;SDS011;7717;47.792;12.076;2023-02-26T04:11:13;2.60;;;2.13;;
15228;SDS011;7717;47.792;12.076;2023-02-26T04:13:21;2.30;;;2.13;;
15228;SDS011;7717;47.792;12.076;2023-02-26T04:15:47;4.50;;;2.73;;
15228;SDS011;7717;47.792;12.076;2023-02-26T04:18:12;2.90;;;2.60;;
15228;SDS011;7717;47.792;12.076;2023-02-26T04:20:38;4.17;;;2.40;;
15228;SDS011;7717;47.792;12.076;2023-02-26T04:23:03;3.23;;;2.77;;
15228;SDS011;7717;47.792;12.076;2023-02-26T04:25:29;3.20;;;2.90;;
15228;SDS011;7717;47.792;12.076;2023-02-26T04:27:54;2.70;;;2.40;;
15228;SDS011;7717;47.792;12.076;2023-02-26T04:30:20;4.97;;;3.00;;
15228;SDS011;7717;47.792;12.076;2023-02-26T04:32:46;2.53;;;2.33;;
15228;SDS011;7717;47.792;12.076;2023-02-26T04:35:11;3.37;;;2.63;;
15228;SDS011;7717;47.792;12.076;2023-02-26T04:37:37;3.23;;;2.37;;
15228;SDS011;7717;47.792;12.076;2023-02-26T04:40:02;2.73;;;2.43;;
15228;SDS011;7717;47.792;12.076;2023-02-26T04:42:28;3.00;;;2.70;;
15228;SDS011;7717;47.792;12.076;2023-02-26T04:44:54;3.77;;;3.37;;
15228;SDS011;7717;47.792;12.076;2023-02-26T04:47:19;4.43;;;2.77;;
15228;SDS011;7717;47.792;12.076;2023-02-26T04:49:45;4.53;;;2.70;;
15228;SDS011;7717;47.792;12.076;2023-02-26T04:52:10;3.17;;;2.87;;
15228;SDS011;7717;47.792;12.076;2023-02-26T04:54:39;2.80;;;2.40;;
15228;SDS011;7717;47.792;12.076;2023-02-26T04:57:05;2.47;;;2.00;;
15228;SDS011;7717;47.792;12.076;2023-02-26T04:59:30;3.00;;;2.67;;
15228;SDS011;7717;47.792;12.076;2023-02-26T05:01:56;4.20;;;2.57;;
15228;SDS011;7717;47.792;12.076;2023-02-26T05:04:21;4.17;;;2.70;;
15228;SDS011;7717;47.792;12.076;2023-02-26T05:06:46;6.47;;;2.80;;
15228;SDS011;7717;47.792;12.076;2023-02-26T05:09:12;2.53;;;2.30;;
15228;SDS011;7717;47.792;12.076;2023-02-26T05:11:37;5.80;;;2.97;;
15228;SDS011;7717;47.792;12.076;2023-02-26T05:14:03;3.20;;;2.70;;
15228;SDS011;7717;47.792;12.076;2023-02-26T05:16:28;3.10;;;2.73;;
15228;SDS011;7717;47.792;12.076;2023-02-26T05:18:54;3.33;;;2.73;;
15228;SDS011;7717;47.792;12.076;2023-02-26T05:21:19;3.00;;;2.40;;
15228;SDS011;7717;47.792;12.076;2023-02-26T05:23:46;3.07;;;2.77;;
15228;SDS011;7717;47.792;12.076;2023-02-26T05:26:11;4.07;;;2.83;;
15228;SDS011;7717;47.792;12.076;2023-02-26T05:28:37;2.97;;;2.77;;
15228;SDS011;7717;47.792;12.076;2023-02-26T05:31:02;2.50;;;2.30;;
15228;SDS011;7717;47.792;12.076;2023-02-26T05:33:28;3.33;;;2.50;;
15228;SDS011;7717;47.792;12.076;2023-02-26T05:35:53;3.57;;;2.60;;
15228;SDS011;7717;47.792;12.076;2023-02-26T05:38:19;2.90;;;2.50;;
15228;SDS011;7717;47.792;12.076;2023-02-26T05:40:44;3.23;;;2.60;;
15228;SDS011;7717;47.792;12.076;2023-02-26T05:43:10;2.90;;;2.27;;
15228;SDS011;7717;47.792;12.076;2023-02-26T05:45:35;4.00;;;2.80;;
15228;SDS011;7717;47.792;12.076;2023-02-26T05:48:00;4.03;;;2.20;;
15228;SDS011;7717;47.792;12.076;2023-02-26T05:50:26;3.60;;;2.30;;
15228;SDS011;7717;47.792;12.076;2023-02-26T05:52:52;11.47;;;7.00;;
15228;SDS011;7717;47.792;12.076;2023-02-26T05:55:17;12.20;;;7.70;;
15228;SDS011;7717;47.792;12.076;2023-02-26T05:57:43;3.17;;;2.57;;
15228;SDS011;7717;47.792;12.076;2023-02-26T06:00:09;2.63;;;2.10;;
15228;SDS011;7717;47.792;12.076;2023-02-26T06:02:35;2.23;;;2.03;;
15228;SDS011;7717;47.792;12.076;2023-02-26T06:05:00;5.33;;;2.57;;
15228;SDS011;7717;47.792;12.076;2023-02-26T06:07:26;4.67;;;2.70;;
15228;SDS011;7717;47.792;12.076;2023-02-26T06:09:51;2.43;;;1.93;;
15228;SDS011;7717;47.792;12.076;2023-02-26T06:12:17;2.47;;;2.20;;
15228;SDS011;7717;47.792;12.076;2023-02-26T06:14:42;7.43;;;3.77;;
15228;SDS011;7717;47.792;12.076;2023-02-26T06:17:07;3.03;;;2.73;;
15228;SDS011;7717;47.792;12.076;2023-02-26T06:19:33;3.53;;;1.97;;
15228;SDS011;7717;47.792;12.076;2023-02-26T06:21:58;3.10;;;2.80;;
15228;SDS011;7717;47.792;12.076;2023-02-26T06:24:24;2.77;;;2.57;;
15228;SDS011;7717;47.792;12.076;2023-02-26T06:26:49;6.40;;;2.57;;
15228;SDS011;7717;47.792;12.076;2023-02-26T06:29:14;1.77;;;1.67;;
15228;SDS011;7717;47.792;12.076;2023-02-26T06:31:42;1.40;;;1.30;;
15228;SDS011;7717;47.792;12.076;2023-02-26T06:34:08;3.43;;;2.37;;
15228;SDS011;7717;47.792;12.076;2023-02-26T06:36:34;3.43;;;2.27;;
15228;SDS011;7717;47.792;12.076;2023-02-26T06:38:59;5.27;;;2.43;;
15228;SDS011;7717;47.792;12.076;2023-02-26T06:41:25;2.97;;;2.33;;
15228;SDS011;7717;47.792;12.076;2023-02-26T06:43:50;4.33;;;2.37;;
15228;SDS011;7717;47.792;12.076;2023-02-26T06:46:15;3.10;;;2.60;;
15228;SDS011;7717;47.792;12.076;2023-02-26T06:48:41;2.60;;;1.80;;
15228;SDS011;7717;47.792;12.076;2023-02-26T06:51:06;1.77;;;1.67;;
15228;SDS011;7717;47.792;12.076;2023-02-26T06:53:32;1.77;;;1.67;;
15228;SDS011;7717;47.792;12.076;2023-02-26T06:55:57;2.50;;;2.03;;
15228;SDS011;7717;47.792;12.076;2023-02-26T06:58:23;2.43;;;1.83;;
15228;SDS011;7717;47.792;12.076;2023-02-26T07:00:49;2.20;;;2.00;;
15228;SDS011;7717;47.792;12.076;2023-02-26T07:03:15;2.83;;;1.80;;
15228;SDS011;7717;47.792;12.076;2023-02-26T07:05:41;4.60;;;1.90;;
15228;SDS011;7717;47.792;12.076;2023-02-26T07:08:08;1.97;;;1.70;;
15228;SDS011;7717;47.792;12.076;2023-02-26T07:10:34;3.90;;;3.60;;
15228;SDS011;7717;47.792;12.076;2023-02-26T07:13:00;4.13;;;2.10;;
15228;SDS011;7717;47.792;12.076;2023-02-26T07:15:26;1.80;;;1.70;;
15228;SDS011;7717;47.792;12.076;2023-02-26T07:17:52;3.10;;;2.83;;
15228;SDS011;7717;47.792;12.076;2023-02-26T07:20:17;2.87;;;1.83;;
15228;SDS011;7717;47.792;12.076;2023-02-26T07:22:43;3.50;;;2.10;;
15228;SDS011;7717;47.792;12.076;2023-02-26T07:25:09;2.37;;;2.10;;
15228;SDS011;7717;47.792;12.076;2023-02-26T07:27:35;3.50;;;2.37;;
15228;SDS011;7717;47.792;12.076;2023-02-26T07:30:00;4.20;;;3.60;;
15228;SDS011;7717;47.792;12.076;2023-02-26T07:32:26;4.33;;;3.30;;
15228;SDS011;7717;47.792;12.076;2023-02-26T07:34:52;1.80;;;1.70;;
15228;SDS011;7717;47.792;12.076;2023-02-26T07:37:18;2.37;;;2.17;;
15228;SDS011;7717;47.792;12.076;2023-02-26T07:39:43;1.90;;;1.80;;
15228;SDS011;7717;47.792;12.076;2023-02-26T07:42:09;1.87;;;1.70;;
15228;SDS011;7717;47.792;12.076;2023-02-26T07:44:34;3.00;;;2.33;;
15228;SDS011;7717;47.792;12.076;2023-02-26T07:47:00;3.03;;;2.13;;
15228;SDS011;7717;47.792;12.076;2023-02-26T07:49:26;3.57;;;2.57;;
15228;SDS011;7717;47.792;12.076;2023-02-26T07:51:51;6.33;;;2.10;;
15228;SDS011;7717;47.792;12.076;2023-02-26T07:54:17;2.40;;;2.23;;
15228;SDS011;7717;47.792;12.076;2023-02-26T07:56:42;1.77;;;1.67;;
15228;SDS011;7717;47.792;12.076;2023-02-26T07:59:09;2.93;;;2.67;;
15228;SDS011;7717;47.792;12.076;2023-02-26T08:01:35;3.47;;;2.80;;
15228;SDS011;7717;47.792;12.076;2023-02-26T08:04:00;3.50;;;2.90;;
15228;SDS011;7717;47.792;12.076;2023-02-26T08:06:26;2.00;;;1.90;;
15228;SDS011;7717;47.792;12.076;2023-02-26T08:08:52;1.43;;;1.33;;
15228;SDS011;7717;47.792;12.076;2023-02-26T08:11:18;3.60;;;2.60;;
15228;SDS011;7717;47.792;12.076;2023-02-26T08:13:43;2.33;;;2.13;;
15228;SDS011;7717;47.792;12.076;2023-02-26T08:16:08;2.43;;;2.23;;
15228;SDS011;7717;47.792;12.076;2023-02-26T08:18:34;2.00;;;1.90;;
15228;SDS011;7717;47.792;12.076;2023-02-26T08:20:59;2.10;;;1.90;;
15228;SDS011;7717;47.792;12.076;2023-02-26T08:23:24;3.43;;;2.10;;
15228;SDS011;7717;47.792;12.076;2023-02-26T08:25:57;2.27;;;2.07;;
15228;SDS011;7717;47.792;12.076;2023-02-26T08:28:24;2.47;;;2.10;;
15228;SDS011;7717;47.792;12.076;2023-02-26T08:30:51;3.53;;;2.10;;
15228;SDS011;7717;47.792;12.076;2023-02-26T08:33:17;3.30;;;3.00;;
15228;SDS011;7717;47.792;12.076;2023-02-26T08:35:43;3.03;;;2.17;;
15228;SDS011;7717;47.792;12.076;2023-02-26T08:38:09;3.23;;;2.07;;
15228;SDS011;7717;47.792;12.076;2023-02-26T08:40:34;1.87;;;1.77;;
15228;SDS011;7717;47.792;12.076;2023-02-26T08:42:59;2.63;;;2.43;;
15228;SDS011;7717;47.792;12.076;2023-02-26T08:45:25;3.50;;;2.03;;
15228;SDS011;7717;47.792;12.076;2023-02-26T08:47:50;3.23;;;2.30;;
15228;SDS011;7717;47.792;12.076;2023-02-26T08:50:18;2.10;;;1.97;;
15228;SDS011;7717;47.792;12.076;2023-02-26T08:52:43;3.30;;;2.10;;
15228;SDS011;7717;47.792;12.076;2023-02-26T08:55:08;3.30;;;2.50;;
15228;SDS011;7717;47.792;12.076;2023-02-26T08:57:34;4.00;;;3.07;;
15228;SDS011;7717;47.792;12.076;2023-02-26T09:00:00;5.03;;;2.90;;
15228;SDS011;7717;47.792;12.076;2023-02-26T09:02:25;2.90;;;2.60;;
15228;SDS011;7717;47.792;12.076;2023-02-26T09:04:53;3.20;;;2.13;;
15228;SDS011;7717;47.792;12.076;2023-02-26T09:07:18;3.40;;;2.17;;
15228;SDS011;7717;47.792;12.076;2023-02-26T09:09:44;2.27;;;2.07;;
15228;SDS011;7717;47.792;12.076;2023-02-26T09:12:09;2.43;;;2.23;;
15228;SDS011;7717;47.792;12.076;2023-02-26T09:14:34;2.57;;;2.10;;
15228;SDS011;7717;47.792;12.076;2023-02-26T09:17:00;3.50;;;2.00;;
15228;SDS011;7717;47.792;12.076;2023-02-26T09:19:25;2.43;;;2.23;;
15228;SDS011;7717;47.792;12.076;2023-02-26T09:21:50;2.53;;;2.33;;
15228;SDS011;7717;47.792;12.076;2023-02-26T09:24:16;4.40;;;2.50;;
15228;SDS011;7717;47.792;12.076;2023-02-26T09:26:41;4.33;;;2.20;;
15228;SDS011;7717;47.792;12.076;2023-02-26T09:29:07;3.03;;;2.50;;
15228;SDS011;7717;47.792;12.076;2023-02-26T09:31:32;2.87;;;1.77;;
15228;SDS011;7717;47.792;12.076;2023-02-26T09:33:57;3.20;;;2.20;;
15228;SDS011;7717;47.792;12.076;2023-02-26T09:36:23;7.63;;;2.50;;
15228;SDS011;7717;47.792;12.076;2023-02-26T09:38:48;5.47;;;2.43;;
15228;SDS011;7717;47.792;12.076;2023-02-26T09:41:36;3.40;;;2.90;;
15228;SDS011;7717;47.792;12.076;2023-02-26T09:44:07;2.63;;;2.43;;
15228;SDS011;7717;47.792;12.076;2023-02-26T09:49:04;5.90;;;3.00;;
15228;SDS011;7717;47.792;12.076;2023-02-26T09:51:31;3.30;;;2.70;;
15228;SDS011;7717;47.792;12.076;2023-02-26T09:53:59;3.87;;;2.90;;
15228;SDS011;7717;47.792;12.076;2023-02-26T09:56:32;2.87;;;2.67;;
15228;SDS011;7717;47.792;12.076;2023-02-26T09:59:00;3.67;;;3.37;;
15228;SDS011;7717;47.792;12.076;2023-02-26T10:07:22;2.90;;;2.60;;
15228;SDS011;7717;47.792;12.076;2023-02-26T10:12:53;2.27;;;2.07;;
15228;SDS011;7717;47.792;12.076;2023-02-26T10:17:51;2.93;;;2.67;;
15228;SDS011;7717;47.792;12.076;2023-02-26T10:21:00;3.30;;;3.00;;
15228;SDS011;7717;47.792;12.076;2023-02-26T10:25:53;7.63;;;5.33;;
15228;SDS011;7717;47.792;12.076;2023-02-26T10:32:02;3.57;;;2.80;;
15228;SDS011;7717;47.792;12.076;2023-02-26T10:34:45;5.10;;;3.70;;
15228;SDS011;7717;47.792;12.076;2023-02-26T10:37:22;6.63;;;5.93;;
15228;SDS011;7717;47.792;12.076;2023-02-26T10:40:13;6.00;;;4.13;;
15228;SDS011;7717;47.792;12.076;2023-02-26T10:42:43;7.53;;;4.60;;
15228;SDS011;7717;47.792;12.076;2023-02-26T10:45:33;3.30;;;3.10;;
15228;SDS011;7717;47.792;12.076;2023-02-26T10:50:47;4.43;;;4.07;;
15228;SDS011;7717;47.792;12.076;2023-02-26T10:53:14;3.43;;;3.10;;
15228;SDS011;7717;47.792;12.076;2023-02-26T10:55:47;3.00;;;2.70;;
15228;SDS011;7717;47.792;12.076;2023-02-26T10:58:16;2.93;;;2.73;;
15228;SDS011;7717;47.792;12.076;2023-02-26T11:00:47;2.47;;;2.27;;
15228;SDS011;7717;47.792;12.076;2023-02-26T11:03:18;3.00;;;2.57;;
15228;SDS011;7717;47.792;12.076;2023-02-26T11:05:44;3.27;;;2.80;;
15228;SDS011;7717;47.792;12.076;2023-02-26T11:08:18;4.57;;;4.10;;
15228;SDS011;7717;47.792;12.076;2023-02-26T11:13:25;3.40;;;3.10;;
15228;SDS011;7717;47.792;12.076;2023-02-26T11:15:54;3.13;;;2.57;;
15228;SDS011;7717;47.792;12.076;2023-02-26T11:18:24;3.37;;;3.07;;
15228;SDS011;7717;47.792;12.076;2023-02-26T11:20:55;2.83;;;2.30;;
15228;SDS011;7717;47.792;12.076;2023-02-26T11:23:24;5.20;;;2.87;;
15228;SDS011;7717;47.792;12.076;2023-02-26T11:26:15;3.47;;;2.87;;
15228;SDS011;7717;47.792;12.076;2023-02-26T11:28:48;3.37;;;3.07;;
15228;SDS011;7717;47.792;12.076;2023-02-26T11:31:18;3.33;;;3.10;;
15228;SDS011;7717;47.792;12.076;2023-02-26T11:33:49;3.00;;;2.77;;
15228;SDS011;7717;47.792;12.076;2023-02-26T11:36:20;2.97;;;2.70;;
15228;SDS011;7717;47.792;12.076;2023-02-26T11:38:55;3.27;;;2.97;;
15228;SDS011;7717;47.792;12.076;2023-02-26T11:41:23;3.20;;;2.90;;
15228;SDS011;7717;47.792;12.076;2023-02-26T11:43:58;3.80;;;2.90;;
15228;SDS011;7717;47.792;12.076;2023-02-26T11:46:26;4.13;;;2.80;;
15228;SDS011;7717;47.792;12.076;2023-02-26T11:48:53;3.70;;;2.93;;
15228;SDS011;7717;47.792;12.076;2023-02-26T11:51:23;4.30;;;3.00;;
15228;SDS011;7717;47.792;12.076;2023-02-26T11:56:31;3.93;;;3.33;;
15228;SDS011;7717;47.792;12.076;2023-02-26T11:59:12;3.10;;;2.90;;
15228;SDS011;7717;47.792;12.076;2023-02-26T12:01:42;3.47;;;3.17;;
15228;SDS011;7717;47.792;12.076;2023-02-26T12:04:08;4.13;;;3.30;;
15228;SDS011;7717;47.792;12.076;2023-02-26T12:06:36;4.90;;;4.10;;
15228;SDS011;7717;47.792;12.076;2023-02-26T12:09:02;3.87;;;3.47;;
15228;SDS011;7717;47.792;12.076;2023-02-26T12:22:49;3.50;;;3.20;;
15228;SDS011;7717;47.792;12.076;2023-02-26T12:40:14;4.17;;;3.83;;
15228;SDS011;7717;47.792;12.076;2023-02-26T12:43:04;3.30;;;3.10;;
15228;SDS011;7717;47.792;12.076;2023-02-26T12:45:55;4.33;;;3.33;;
15228;SDS011;7717;47.792;12.076;2023-02-26T12:51:21;3.77;;;3.47;;
15228;SDS011;7717;47.792;12.076;2023-02-26T13:00:07;3.33;;;3.13;;
15228;SDS011;7717;47.792;12.076;2023-02-26T13:05:51;4.30;;;3.20;;
15228;SDS011;7717;47.792;12.076;2023-02-26T13:08:48;3.17;;;2.87;;
15228;SDS011;7717;47.792;12.076;2023-02-26T13:11:28;4.10;;;3.80;;
15228;SDS011;7717;47.792;12.076;2023-02-26T13:17:00;3.80;;;3.50;;
15228;SDS011;7717;47.792;12.076;2023-02-26T13:19:36;6.40;;;5.80;;
15228;SDS011;7717;47.792;12.076;2023-02-26T13:24:49;3.70;;;3.50;;
15228;SDS011;7717;47.792;12.076;2023-02-26T13:27:20;3.67;;;3.37;;
15228;SDS011;7717;47.792;12.076;2023-02-26T13:29:58;4.67;;;4.27;;
15228;SDS011;7717;47.792;12.076;2023-02-26T13:32:37;4.03;;;3.73;;
15228;SDS011;7717;47.792;12.076;2023-02-26T13:35:12;3.13;;;2.90;;
15228;SDS011;7717;47.792;12.076;2023-02-26T13:37:48;3.63;;;3.33;;
15228;SDS011;7717;47.792;12.076;2023-02-26T13:40:29;7.87;;;6.67;;
15228;SDS011;7717;47.792;12.076;2023-02-26T13:43:05;5.57;;;5.07;;
15228;SDS011;7717;47.792;12.076;2023-02-26T13:48:21;6.97;;;6.20;;
15228;SDS011;7717;47.792;12.076;2023-02-26T13:51:02;6.27;;;4.30;;
15228;SDS011;7717;47.792;12.076;2023-02-26T13:56:15;4.70;;;4.30;;
15228;SDS011;7717;47.792;12.076;2023-02-26T14:04:50;4.10;;;3.70;;
15228;SDS011;7717;47.792;12.076;2023-02-26T14:07:44;4.60;;;4.20;;
15228;SDS011;7717;47.792;12.076;2023-02-26T14:13:19;4.03;;;3.23;;
15228;SDS011;7717;47.792;12.076;2023-02-26T14:24:22;4.77;;;4.40;;
15228;SDS011;7717;47.792;12.076;2023-02-26T14:29:39;5.40;;;4.90;;
15228;SDS011;7717;47.792;12.076;2023-02-26T14:34:36;7.30;;;6.60;;
15228;SDS011;7717;47.792;12.076;2023-02-26T14:37:13;9.70;;;8.27;;
15228;SDS011;7717;47.792;12.076;2023-02-26T14:39:42;19.60;;;11.30;;
15228;SDS011;7717;47.792;12.076;2023-02-26T14:42:14;14.90;;;9.47;;
15228;SDS011;7717;47.792;12.076;2023-02-26T14:44:45;9.67;;;7.07;;
15228;SDS011;7717;47.792;12.076;2023-02-26T14:47:14;31.67;;;18.60;;
15228;SDS011;7717;47.792;12.076;2023-02-26T14:49:42;8.90;;;7.00;;
15228;SDS011;7717;47.792;12.076;2023-02-26T14:57:53;2.93;;;2.70;;
15228;SDS011;7717;47.792;12.076;2023-02-26T15:00:52;2.73;;;2.53;;
15228;SDS011;7717;47.792;12.076;2023-02-26T15:09:22;3.63;;;2.30;;
15228;SDS011;7717;47.792;12.076;2023-02-26T15:25:29;4.37;;;3.73;;
15228;SDS011;7717;47.792;12.076;2023-02-26T15:27:58;13.67;;;9.87;;
15228;SDS011;7717;47.792;12.076;2023-02-26T15:30:25;14.83;;;9.93;;
15228;SDS011;7717;47.792;12.076;2023-02-26T15:32:56;3.77;;;3.37;;
15228;SDS011;7717;47.792;12.076;2023-02-26T15:35:23;2.40;;;1.93;;
15228;SDS011;7717;47.792;12.076;2023-02-26T15:37:52;1.57;;;1.47;;
15228;SDS011;7717;47.792;12.076;2023-02-26T15:40:19;1.57;;;1.47;;
15228;SDS011;7717;47.792;12.076;2023-02-26T15:42:47;1.50;;;1.30;;
15228;SDS011;7717;47.792;12.076;2023-02-26T15:45:18;1.13;;;1.07;;
15228;SDS011;7717;47.792;12.076;2023-02-26T15:47:46;1.70;;;1.60;;
15228;SDS011;7717;47.792;12.076;2023-02-26T15:50:16;1.60;;;1.50;;
15228;SDS011;7717;47.792;12.076;2023-02-26T15:52:41;2.17;;;1.97;;
15228;SDS011;7717;47.792;12.076;2023-02-26T15:55:07;2.03;;;1.83;;
15228;SDS011;7717;47.792;12.076;2023-02-26T15:57:40;2.07;;;1.90;;
15228;SDS011;7717;47.792;12.076;2023-02-26T16:00:07;2.60;;;2.40;;
15228;SDS011;7717;47.792;12.076;2023-02-26T16:02:35;2.87;;;2.67;;
15228;SDS011;7717;47.792;12.076;2023-02-26T16:05:02;3.47;;;3.23;;
15228;SDS011;7717;47.792;12.076;2023-02-26T16:07:28;2.97;;;2.67;;
15228;SDS011;7717;47.792;12.076;2023-02-26T16:09:54;2.40;;;2.20;;
15228;SDS011;7717;47.792;12.076;2023-02-26T16:12:21;2.97;;;2.70;;
15228;SDS011;7717;47.792;12.076;2023-02-26T16:15:00;3.40;;;3.03;;
15228;SDS011;7717;47.792;12.076;2023-02-26T16:17:30;2.57;;;2.10;;
15228;SDS011;7717;47.792;12.076;2023-02-26T16:19:59;2.73;;;2.53;;
15228;SDS011;7717;47.792;12.076;2023-02-26T16:22:31;5.53;;;3.90;;
15228;SDS011;7717;47.792;12.076;2023-02-26T16:25:05;6.07;;;4.40;;
15228;SDS011;7717;47.792;12.076;2023-02-26T16:27:39;4.87;;;4.07;;
15228;SDS011;7717;47.792;12.076;2023-02-26T16:30:07;6.53;;;3.80;;
15228;SDS011;7717;47.792;12.076;2023-02-26T16:32:39;6.47;;;4.97;;
15228;SDS011;7717;47.792;12.076;2023-02-26T16:35:14;4.60;;;4.20;;
15228;SDS011;7717;47.792;12.076;2023-02-26T16:37:44;6.97;;;5.47;;
15228;SDS011;7717;47.792;12.076;2023-02-26T16:40:23;5.23;;;4.73;;
15228;SDS011;7717;47.792;12.076;2023-02-26T16:47:59;3.40;;;3.10;;
15228;SDS011;7717;47.792;12.076;2023-02-26T16:50:27;3.97;;;3.57;;
15228;SDS011;7717;47.792;12.076;2023-02-26T16:53:00;3.20;;;2.47;;
15228;SDS011;7717;47.792;12.076;2023-02-26T16:55:33;4.73;;;3.83;;
15228;SDS011;7717;47.792;12.076;2023-02-26T16:58:02;5.27;;;4.73;;
15228;SDS011;7717;47.792;12.076;2023-02-26T17:00:31;5.57;;;5.07;;
15228;SDS011;7717;47.792;12.076;2023-02-26T17:02:59;6.20;;;5.37;;
15228;SDS011;7717;47.792;12.076;2023-02-26T17:05:33;4.93;;;4.33;;
15228;SDS011;7717;47.792;12.076;2023-02-26T17:10:46;3.80;;;3.50;;
15228;SDS011;7717;47.792;12.076;2023-02-26T17:13:19;4.63;;;4.23;;
15228;SDS011;7717;47.792;12.076;2023-02-26T17:15:49;5.03;;;4.63;;
15228;SDS011;7717;47.792;12.076;2023-02-26T17:18:16;4.87;;;4.33;;
15228;SDS011;7717;47.792;12.076;2023-02-26T17:20:41;4.70;;;4.30;;
15228;SDS011;7717;47.792;12.076;2023-02-26T17:23:08;7.00;;;6.30;;
15228;SDS011;7717;47.792;12.076;2023-02-26T17:25:38;4.77;;;4.23;;
15228;SDS011;7717;47.792;12.076;2023-02-26T17:28:06;3.30;;;3.00;;
15228;SDS011;7717;47.792;12.076;2023-02-26T17:30:32;2.93;;;2.73;;
15228;SDS011;7717;47.792;12.076;2023-02-26T17:32:59;9.03;;;5.67;;
15228;SDS011;7717;47.792;12.076;2023-02-26T17:35:25;5.70;;;4.80;;
15228;SDS011;7717;47.792;12.076;2023-02-26T17:37:51;6.40;;;4.97;;
15228;SDS011;7717;47.792;12.076;2023-02-26T17:43:18;5.70;;;5.10;;
15228;SDS011;7717;47.792;12.076;2023-02-26T17:45:44;8.93;;;6.23;;
15228;SDS011;7717;47.792;12.076;2023-02-26T17:48:09;19.77;;;10.50;;
15228;SDS011;7717;47.792;12.076;2023-02-26T17:53:14;14.57;;;8.87;;
15228;SDS011;7717;47.792;12.076;2023-02-26T17:55:40;12.30;;;9.13;;
15228;SDS011;7717;47.792;12.076;2023-02-26T17:58:06;8.27;;;6.10;;
15228;SDS011;7717;47.792;12.076;2023-02-26T18:00:39;4.80;;;4.33;;
15228;SDS011;7717;47.792;12.076;2023-02-26T18:03:07;5.03;;;4.53;;
15228;SDS011;7717;47.792;12.076;2023-02-26T18:05:33;4.70;;;3.60;;
15228;SDS011;7717;47.792;12.076;2023-02-26T18:08:25;6.70;;;4.90;;